sensor_id;sensor_type;location;lat;lon;timestamp;P1;durP1;ratioP1;P2;durP2;ratioP2
33266;SDS011;19638;49.080;11.896;2023-07-13T00:02:24;4.72;;;4.20;;
33266;SDS011;19638;49.080;11.896;2023-07-13T00:06:28;9.65;;;4.88;;
33266;SDS011;19638;49.080;11.896;2023-07-13T00:10:45;10.52;;;4.60;;
33266;SDS011;19638;49.080;11.896;2023-07-13T00:15:03;6.57;;;4.65;;
33266;SDS011;19638;49.080;11.896;2023-07-13T00:19:08;13.13;;;5.28;;
33266;SDS011;19638;49.080;11.896;2023-07-13T00:23:13;11.77;;;5.47;;
33266;SDS011;19638;49.080;11.896;2023-07-13T00:27:19;11.85;;;4.68;;
33266;SDS011;19638;49.080;11.896;2023-07-13T00:31:23;9.60;;;5.00;;
33266;SDS011;19638;49.080;11.896;2023-07-13T00:35:26;12.65;;;5.80;;
33266;SDS011;19638;49.080;11.896;2023-07-13T00:39:32;12.77;;;5.63;;
33266;SDS011;19638;49.080;11.896;2023-07-13T00:43:37;12.50;;;5.90;;
33266;SDS011;19638;49.080;11.896;2023-07-13T00:47:43;20.63;;;5.88;;
33266;SDS011;19638;49.080;11.896;2023-07-13T00:51:47;13.50;;;6.10;;
33266;SDS011;19638;49.080;11.896;2023-07-13T00:55:53;20.00;;;5.93;;
33266;SDS011;19638;49.080;11.896;2023-07-13T01:00:03;14.30;;;6.28;;
33266;SDS011;19638;49.080;11.896;2023-07-13T01:04:13;15.95;;;7.47;;
33266;SDS011;19638;49.080;11.896;2023-07-13T01:08:19;11.52;;;7.70;;
33266;SDS011;19638;49.080;11.896;2023-07-13T01:12:28;13.52;;;7.05;;
33266;SDS011;19638;49.080;11.896;2023-07-13T01:16:34;19.55;;;7.57;;
33266;SDS011;19638;49.080;11.896;2023-07-13T01:24:52;20.75;;;7.97;;
33266;SDS011;19638;49.080;11.896;2023-07-13T01:28:56;17.60;;;7.95;;
33266;SDS011;19638;49.080;11.896;2023-07-13T01:33:03;21.77;;;8.77;;
33266;SDS011;19638;49.080;11.896;2023-07-13T01:37:10;20.70;;;8.15;;
33266;SDS011;19638;49.080;11.896;2023-07-13T01:41:15;27.10;;;8.77;;
33266;SDS011;19638;49.080;11.896;2023-07-13T01:45:18;24.33;;;9.38;;
33266;SDS011;19638;49.080;11.896;2023-07-13T01:49:25;21.50;;;8.98;;
33266;SDS011;19638;49.080;11.896;2023-07-13T01:53:29;26.80;;;9.93;;
33266;SDS011;19638;49.080;11.896;2023-07-13T01:57:35;24.13;;;8.85;;
33266;SDS011;19638;49.080;11.896;2023-07-13T02:01:38;20.27;;;9.52;;
33266;SDS011;19638;49.080;11.896;2023-07-13T02:05:44;18.60;;;9.05;;
33266;SDS011;19638;49.080;11.896;2023-07-13T02:09:49;21.05;;;8.98;;
33266;SDS011;19638;49.080;11.896;2023-07-13T02:13:54;21.45;;;8.90;;
33266;SDS011;19638;49.080;11.896;2023-07-13T02:18:00;25.73;;;9.40;;
33266;SDS011;19638;49.080;11.896;2023-07-13T02:22:05;27.60;;;8.52;;
33266;SDS011;19638;49.080;11.896;2023-07-13T02:26:09;18.27;;;8.25;;
33266;SDS011;19638;49.080;11.896;2023-07-13T02:30:15;18.00;;;8.13;;
33266;SDS011;19638;49.080;11.896;2023-07-13T02:34:18;23.52;;;8.68;;
33266;SDS011;19638;49.080;11.896;2023-07-13T02:38:23;20.02;;;8.65;;
33266;SDS011;19638;49.080;11.896;2023-07-13T02:42:28;27.33;;;9.15;;
33266;SDS011;19638;49.080;11.896;2023-07-13T02:46:38;24.73;;;8.35;;
33266;SDS011;19638;49.080;11.896;2023-07-13T02:50:41;28.23;;;8.95;;
33266;SDS011;19638;49.080;11.896;2023-07-13T02:54:44;22.02;;;9.63;;
33266;SDS011;19638;49.080;11.896;2023-07-13T02:58:51;33.30;;;9.90;;
33266;SDS011;19638;49.080;11.896;2023-07-13T03:02:55;33.00;;;9.77;;
33266;SDS011;19638;49.080;11.896;2023-07-13T03:06:59;37.60;;;9.00;;
33266;SDS011;19638;49.080;11.896;2023-07-13T03:11:05;34.25;;;9.25;;
33266;SDS011;19638;49.080;11.896;2023-07-13T03:15:14;25.10;;;8.45;;
33266;SDS011;19638;49.080;11.896;2023-07-13T03:19:22;10.40;;;6.88;;
33266;SDS011;19638;49.080;11.896;2023-07-13T03:23:26;20.30;;;7.47;;
33266;SDS011;19638;49.080;11.896;2023-07-13T03:27:29;22.77;;;7.93;;
33266;SDS011;19638;49.080;11.896;2023-07-13T03:31:34;13.88;;;7.53;;
33266;SDS011;19638;49.080;11.896;2023-07-13T03:35:44;44.85;;;8.07;;
33266;SDS011;19638;49.080;11.896;2023-07-13T03:39:47;17.17;;;7.18;;
33266;SDS011;19638;49.080;11.896;2023-07-13T03:43:53;13.57;;;6.60;;
33266;SDS011;19638;49.080;11.896;2023-07-13T03:47:59;19.35;;;7.30;;
33266;SDS011;19638;49.080;11.896;2023-07-13T03:52:03;20.15;;;7.95;;
33266;SDS011;19638;49.080;11.896;2023-07-13T03:56:12;30.65;;;8.25;;
33266;SDS011;19638;49.080;11.896;2023-07-13T04:00:22;17.10;;;7.55;;
33266;SDS011;19638;49.080;11.896;2023-07-13T04:04:27;22.20;;;7.38;;
33266;SDS011;19638;49.080;11.896;2023-07-13T04:08:36;19.15;;;8.20;;
33266;SDS011;19638;49.080;11.896;2023-07-13T04:12:42;10.20;;;6.07;;
33266;SDS011;19638;49.080;11.896;2023-07-13T04:16:45;14.48;;;6.80;;
33266;SDS011;19638;49.080;11.896;2023-07-13T04:20:50;19.98;;;7.22;;
33266;SDS011;19638;49.080;11.896;2023-07-13T04:24:53;17.02;;;6.20;;
33266;SDS011;19638;49.080;11.896;2023-07-13T04:28:57;16.30;;;6.25;;
33266;SDS011;19638;49.080;11.896;2023-07-13T04:33:00;16.67;;;6.47;;
33266;SDS011;19638;49.080;11.896;2023-07-13T04:37:07;21.27;;;5.22;;
33266;SDS011;19638;49.080;11.896;2023-07-13T04:41:10;15.73;;;5.75;;
33266;SDS011;19638;49.080;11.896;2023-07-13T04:45:16;15.68;;;5.10;;
33266;SDS011;19638;49.080;11.896;2023-07-13T04:49:22;17.60;;;5.43;;
33266;SDS011;19638;49.080;11.896;2023-07-13T04:53:27;13.10;;;4.82;;
33266;SDS011;19638;49.080;11.896;2023-07-13T04:57:33;12.30;;;4.60;;
33266;SDS011;19638;49.080;11.896;2023-07-13T05:01:40;10.48;;;3.58;;
33266;SDS011;19638;49.080;11.896;2023-07-13T05:05:54;11.15;;;4.18;;
33266;SDS011;19638;49.080;11.896;2023-07-13T05:09:59;8.80;;;4.10;;
33266;SDS011;19638;49.080;11.896;2023-07-13T05:14:03;9.15;;;4.78;;
33266;SDS011;19638;49.080;11.896;2023-07-13T05:18:11;14.88;;;4.55;;
33266;SDS011;19638;49.080;11.896;2023-07-13T05:22:14;14.65;;;4.25;;
33266;SDS011;19638;49.080;11.896;2023-07-13T05:26:18;9.52;;;3.60;;
33266;SDS011;19638;49.080;11.896;2023-07-13T05:30:22;4.45;;;3.20;;
33266;SDS011;19638;49.080;11.896;2023-07-13T05:34:25;6.15;;;3.58;;
33266;SDS011;19638;49.080;11.896;2023-07-13T05:38:28;4.45;;;2.88;;
33266;SDS011;19638;49.080;11.896;2023-07-13T05:42:33;7.45;;;3.10;;
33266;SDS011;19638;49.080;11.896;2023-07-13T05:46:39;6.07;;;2.78;;
33266;SDS011;19638;49.080;11.896;2023-07-13T05:50:45;3.95;;;2.45;;
33266;SDS011;19638;49.080;11.896;2023-07-13T05:54:49;6.57;;;2.80;;
33266;SDS011;19638;49.080;11.896;2023-07-13T05:58:54;4.15;;;2.10;;
33266;SDS011;19638;49.080;11.896;2023-07-13T06:02:59;7.07;;;2.42;;
33266;SDS011;19638;49.080;11.896;2023-07-13T06:07:06;4.32;;;2.35;;
33266;SDS011;19638;49.080;11.896;2023-07-13T06:11:13;6.00;;;2.60;;
33266;SDS011;19638;49.080;11.896;2023-07-13T06:15:21;4.13;;;2.63;;
33266;SDS011;19638;49.080;11.896;2023-07-13T06:19:24;2.90;;;2.63;;
33266;SDS011;19638;49.080;11.896;2023-07-13T06:23:28;5.93;;;2.20;;
33266;SDS011;19638;49.080;11.896;2023-07-13T06:27:32;5.88;;;2.30;;
33266;SDS011;19638;49.080;11.896;2023-07-13T06:31:36;4.28;;;2.45;;
33266;SDS011;19638;49.080;11.896;2023-07-13T06:35:40;5.72;;;2.30;;
33266;SDS011;19638;49.080;11.896;2023-07-13T06:39:48;3.58;;;2.10;;
33266;SDS011;19638;49.080;11.896;2023-07-13T06:43:54;2.88;;;2.38;;
33266;SDS011;19638;49.080;11.896;2023-07-13T06:48:00;3.95;;;2.20;;
33266;SDS011;19638;49.080;11.896;2023-07-13T06:52:12;2.53;;;2.30;;
33266;SDS011;19638;49.080;11.896;2023-07-13T06:56:15;3.67;;;2.15;;
33266;SDS011;19638;49.080;11.896;2023-07-13T07:00:19;2.20;;;2.00;;
33266;SDS011;19638;49.080;11.896;2023-07-13T07:04:24;5.38;;;2.10;;
33266;SDS011;19638;49.080;11.896;2023-07-13T07:08:28;4.32;;;2.13;;
33266;SDS011;19638;49.080;11.896;2023-07-13T07:12:32;2.00;;;1.85;;
33266;SDS011;19638;49.080;11.896;2023-07-13T07:16:38;2.97;;;1.90;;
33266;SDS011;19638;49.080;11.896;2023-07-13T07:20:42;6.95;;;2.13;;
33266;SDS011;19638;49.080;11.896;2023-07-13T07:24:47;3.88;;;2.17;;
33266;SDS011;19638;49.080;11.896;2023-07-13T07:28:52;7.00;;;2.00;;
33266;SDS011;19638;49.080;11.896;2023-07-13T07:33:15;3.50;;;2.05;;
33266;SDS011;19638;49.080;11.896;2023-07-13T07:37:20;3.50;;;2.30;;
33266;SDS011;19638;49.080;11.896;2023-07-13T07:41:44;6.93;;;2.00;;
33266;SDS011;19638;49.080;11.896;2023-07-13T07:45:52;5.07;;;2.15;;
33266;SDS011;19638;49.080;11.896;2023-07-13T07:49:56;5.10;;;2.00;;
33266;SDS011;19638;49.080;11.896;2023-07-13T07:54:00;6.07;;;2.15;;
33266;SDS011;19638;49.080;11.896;2023-07-13T07:58:08;4.95;;;2.03;;
33266;SDS011;19638;49.080;11.896;2023-07-13T08:02:32;2.35;;;1.98;;
33266;SDS011;19638;49.080;11.896;2023-07-13T08:06:38;6.88;;;1.95;;
33266;SDS011;19638;49.080;11.896;2023-07-13T08:10:47;5.05;;;2.00;;
33266;SDS011;19638;49.080;11.896;2023-07-13T08:14:52;2.50;;;1.75;;
33266;SDS011;19638;49.080;11.896;2023-07-13T08:19:00;4.93;;;1.90;;
33266;SDS011;19638;49.080;11.896;2023-07-13T08:23:05;6.65;;;2.03;;
33266;SDS011;19638;49.080;11.896;2023-07-13T08:27:24;4.43;;;1.80;;
33266;SDS011;19638;49.080;11.896;2023-07-13T08:31:31;3.53;;;2.00;;
33266;SDS011;19638;49.080;11.896;2023-07-13T08:35:34;3.75;;;2.40;;
33266;SDS011;19638;49.080;11.896;2023-07-13T08:39:45;6.90;;;2.75;;
33266;SDS011;19638;49.080;11.896;2023-07-13T08:43:51;11.07;;;2.10;;
33266;SDS011;19638;49.080;11.896;2023-07-13T08:48:01;3.03;;;1.75;;
33266;SDS011;19638;49.080;11.896;2023-07-13T08:52:11;2.22;;;1.65;;
33266;SDS011;19638;49.080;11.896;2023-07-13T08:56:22;4.78;;;1.77;;
33266;SDS011;19638;49.080;11.896;2023-07-13T09:00:34;4.45;;;1.73;;
33266;SDS011;19638;49.080;11.896;2023-07-13T09:04:48;2.47;;;1.60;;
33266;SDS011;19638;49.080;11.896;2023-07-13T09:08:55;2.00;;;1.63;;
33266;SDS011;19638;49.080;11.896;2023-07-13T09:13:09;2.63;;;1.73;;
33266;SDS011;19638;49.080;11.896;2023-07-13T09:17:31;3.25;;;1.90;;
33266;SDS011;19638;49.080;11.896;2023-07-13T09:21:38;4.20;;;1.95;;
33266;SDS011;19638;49.080;11.896;2023-07-13T09:25:49;1.90;;;1.50;;
33266;SDS011;19638;49.080;11.896;2023-07-13T09:29:58;2.95;;;2.00;;
33266;SDS011;19638;49.080;11.896;2023-07-13T09:34:15;3.55;;;1.67;;
33266;SDS011;19638;49.080;11.896;2023-07-13T09:38:19;6.20;;;1.73;;
33266;SDS011;19638;49.080;11.896;2023-07-13T09:42:35;6.43;;;1.83;;
33266;SDS011;19638;49.080;11.896;2023-07-13T09:46:44;3.42;;;2.00;;
33266;SDS011;19638;49.080;11.896;2023-07-13T09:50:51;6.55;;;1.75;;
33266;SDS011;19638;49.080;11.896;2023-07-13T09:55:03;4.75;;;1.63;;
33266;SDS011;19638;49.080;11.896;2023-07-13T09:59:27;5.22;;;1.60;;
33266;SDS011;19638;49.080;11.896;2023-07-13T10:03:34;3.95;;;1.73;;
33266;SDS011;19638;49.080;11.896;2023-07-13T10:07:42;3.03;;;1.52;;
33266;SDS011;19638;49.080;11.896;2023-07-13T10:11:47;5.90;;;1.83;;
33266;SDS011;19638;49.080;11.896;2023-07-13T10:15:54;5.22;;;1.60;;
33266;SDS011;19638;49.080;11.896;2023-07-13T10:20:00;3.75;;;1.60;;
33266;SDS011;19638;49.080;11.896;2023-07-13T10:24:10;2.22;;;1.35;;
33266;SDS011;19638;49.080;11.896;2023-07-13T10:28:23;1.95;;;1.50;;
33266;SDS011;19638;49.080;11.896;2023-07-13T10:32:32;2.55;;;1.42;;
33266;SDS011;19638;49.080;11.896;2023-07-13T10:36:40;2.00;;;1.45;;
33266;SDS011;19638;49.080;11.896;2023-07-13T10:40:48;4.15;;;1.50;;
33266;SDS011;19638;49.080;11.896;2023-07-13T10:44:59;2.13;;;1.63;;
33266;SDS011;19638;49.080;11.896;2023-07-13T10:49:06;3.00;;;1.45;;
33266;SDS011;19638;49.080;11.896;2023-07-13T10:53:17;5.20;;;1.60;;
33266;SDS011;19638;49.080;11.896;2023-07-13T10:57:25;4.00;;;1.60;;
33266;SDS011;19638;49.080;11.896;2023-07-13T11:01:38;1.55;;;1.45;;
33266;SDS011;19638;49.080;11.896;2023-07-13T11:05:44;3.60;;;1.65;;
33266;SDS011;19638;49.080;11.896;2023-07-13T11:09:54;1.75;;;1.45;;
33266;SDS011;19638;49.080;11.896;2023-07-13T11:14:01;4.93;;;1.60;;
33266;SDS011;19638;49.080;11.896;2023-07-13T11:18:11;2.67;;;1.30;;
33266;SDS011;19638;49.080;11.896;2023-07-13T11:22:41;3.70;;;1.33;;
33266;SDS011;19638;49.080;11.896;2023-07-13T11:26:50;7.63;;;1.73;;
33266;SDS011;19638;49.080;11.896;2023-07-13T11:35:28;5.63;;;1.90;;
33266;SDS011;19638;49.080;11.896;2023-07-13T11:39:32;1.80;;;1.40;;
33266;SDS011;19638;49.080;11.896;2023-07-13T11:43:48;2.08;;;1.30;;
33266;SDS011;19638;49.080;11.896;2023-07-13T11:47:54;1.83;;;1.45;;
33266;SDS011;19638;49.080;11.896;2023-07-13T11:56:13;1.40;;;1.30;;
33266;SDS011;19638;49.080;11.896;2023-07-13T12:00:18;2.13;;;1.55;;
33266;SDS011;19638;49.080;11.896;2023-07-13T12:04:28;3.30;;;1.55;;
33266;SDS011;19638;49.080;11.896;2023-07-13T12:08:37;2.85;;;1.30;;
33266;SDS011;19638;49.080;11.896;2023-07-13T12:12:48;1.88;;;1.40;;
33266;SDS011;19638;49.080;11.896;2023-07-13T12:16:57;1.70;;;1.25;;
33266;SDS011;19638;49.080;11.896;2023-07-13T12:21:01;3.05;;;1.40;;
33266;SDS011;19638;49.080;11.896;2023-07-13T12:25:08;5.30;;;1.40;;
33266;SDS011;19638;49.080;11.896;2023-07-13T12:29:17;2.92;;;1.60;;
33266;SDS011;19638;49.080;11.896;2023-07-13T12:33:20;1.90;;;1.52;;
33266;SDS011;19638;49.080;11.896;2023-07-13T12:37:33;3.20;;;1.70;;
33266;SDS011;19638;49.080;11.896;2023-07-13T12:41:39;2.70;;;1.40;;
33266;SDS011;19638;49.080;11.896;2023-07-13T12:45:55;3.28;;;1.63;;
33266;SDS011;19638;49.080;11.896;2023-07-13T12:49:59;2.35;;;1.50;;
33266;SDS011;19638;49.080;11.896;2023-07-13T12:54:18;3.72;;;1.30;;
33266;SDS011;19638;49.080;11.896;2023-07-13T12:58:24;1.73;;;1.63;;
33266;SDS011;19638;49.080;11.896;2023-07-13T13:02:35;3.58;;;1.50;;
33266;SDS011;19638;49.080;11.896;2023-07-13T13:06:39;1.45;;;1.20;;
33266;SDS011;19638;49.080;11.896;2023-07-13T13:10:47;4.70;;;1.80;;
33266;SDS011;19638;49.080;11.896;2023-07-13T13:14:55;1.73;;;1.40;;
33266;SDS011;19638;49.080;11.896;2023-07-13T13:18:59;7.38;;;1.85;;
33266;SDS011;19638;49.080;11.896;2023-07-13T13:23:15;1.48;;;1.38;;
33266;SDS011;19638;49.080;11.896;2023-07-13T13:27:21;1.83;;;1.40;;
33266;SDS011;19638;49.080;11.896;2023-07-13T13:31:28;4.00;;;1.75;;
33266;SDS011;19638;49.080;11.896;2023-07-13T13:35:31;2.55;;;1.10;;
33266;SDS011;19638;49.080;11.896;2023-07-13T13:39:34;3.13;;;1.35;;
33266;SDS011;19638;49.080;11.896;2023-07-13T13:43:44;2.92;;;1.30;;
33266;SDS011;19638;49.080;11.896;2023-07-13T13:47:54;3.78;;;1.45;;
33266;SDS011;19638;49.080;11.896;2023-07-13T13:52:09;2.53;;;1.58;;
33266;SDS011;19638;49.080;11.896;2023-07-13T13:56:13;2.05;;;1.30;;
33266;SDS011;19638;49.080;11.896;2023-07-13T14:00:20;2.55;;;1.60;;
33266;SDS011;19638;49.080;11.896;2023-07-13T14:04:23;3.35;;;1.45;;
33266;SDS011;19638;49.080;11.896;2023-07-13T14:08:27;7.22;;;1.92;;
33266;SDS011;19638;49.080;11.896;2023-07-13T14:12:33;1.60;;;1.50;;
33266;SDS011;19638;49.080;11.896;2023-07-13T14:16:38;4.15;;;1.63;;
33266;SDS011;19638;49.080;11.896;2023-07-13T14:20:44;3.33;;;1.60;;
33266;SDS011;19638;49.080;11.896;2023-07-13T14:24:51;4.07;;;1.65;;
33266;SDS011;19638;49.080;11.896;2023-07-13T14:28:57;1.80;;;1.50;;
33266;SDS011;19638;49.080;11.896;2023-07-13T14:33:08;1.85;;;1.40;;
33266;SDS011;19638;49.080;11.896;2023-07-13T14:37:12;2.92;;;1.50;;
33266;SDS011;19638;49.080;11.896;2023-07-13T14:41:17;3.13;;;1.35;;
33266;SDS011;19638;49.080;11.896;2023-07-13T14:45:26;2.78;;;1.77;;
33266;SDS011;19638;49.080;11.896;2023-07-13T14:49:32;1.92;;;1.60;;
33266;SDS011;19638;49.080;11.896;2023-07-13T14:53:41;2.17;;;1.40;;
33266;SDS011;19638;49.080;11.896;2023-07-13T14:57:46;2.08;;;1.60;;
33266;SDS011;19638;49.080;11.896;2023-07-13T15:01:51;2.63;;;1.50;;
33266;SDS011;19638;49.080;11.896;2023-07-13T15:05:57;1.60;;;1.50;;
33266;SDS011;19638;49.080;11.896;2023-07-13T15:10:01;4.28;;;1.77;;
33266;SDS011;19638;49.080;11.896;2023-07-13T15:14:05;4.25;;;1.80;;
33266;SDS011;19638;49.080;11.896;2023-07-13T15:18:13;5.03;;;1.55;;
33266;SDS011;19638;49.080;11.896;2023-07-13T15:22:20;3.15;;;1.80;;
33266;SDS011;19638;49.080;11.896;2023-07-13T15:26:23;2.10;;;1.50;;
33266;SDS011;19638;49.080;11.896;2023-07-13T15:30:27;2.13;;;1.80;;
33266;SDS011;19638;49.080;11.896;2023-07-13T15:34:35;4.03;;;1.80;;
33266;SDS011;19638;49.080;11.896;2023-07-13T15:38:44;1.98;;;1.40;;
33266;SDS011;19638;49.080;11.896;2023-07-13T15:42:53;4.05;;;1.77;;
33266;SDS011;19638;49.080;11.896;2023-07-13T15:46:56;3.90;;;1.73;;
33266;SDS011;19638;49.080;11.896;2023-07-13T15:51:03;3.08;;;1.67;;
33266;SDS011;19638;49.080;11.896;2023-07-13T15:55:12;2.75;;;1.80;;
33266;SDS011;19638;49.080;11.896;2023-07-13T15:59:18;3.67;;;1.80;;
33266;SDS011;19638;49.080;11.896;2023-07-13T16:03:21;2.03;;;1.60;;
33266;SDS011;19638;49.080;11.896;2023-07-13T16:07:25;1.95;;;1.55;;
33266;SDS011;19638;49.080;11.896;2023-07-13T16:11:32;3.50;;;1.73;;
33266;SDS011;19638;49.080;11.896;2023-07-13T16:15:40;1.65;;;1.55;;
33266;SDS011;19638;49.080;11.896;2023-07-13T16:19:45;3.97;;;1.73;;
33266;SDS011;19638;49.080;11.896;2023-07-13T16:23:49;3.15;;;1.65;;
33266;SDS011;19638;49.080;11.896;2023-07-13T16:28:08;4.80;;;1.77;;
33266;SDS011;19638;49.080;11.896;2023-07-13T16:32:15;4.65;;;2.08;;
33266;SDS011;19638;49.080;11.896;2023-07-13T16:36:22;2.63;;;1.67;;
33266;SDS011;19638;49.080;11.896;2023-07-13T16:40:27;4.53;;;1.80;;
33266;SDS011;19638;49.080;11.896;2023-07-13T16:44:33;3.05;;;1.70;;
33266;SDS011;19638;49.080;11.896;2023-07-13T16:48:36;2.78;;;1.67;;
33266;SDS011;19638;49.080;11.896;2023-07-13T16:52:40;1.80;;;1.60;;
33266;SDS011;19638;49.080;11.896;2023-07-13T16:56:44;1.73;;;1.63;;
33266;SDS011;19638;49.080;11.896;2023-07-13T17:00:50;1.98;;;1.77;;
33266;SDS011;19638;49.080;11.896;2023-07-13T17:04:55;3.67;;;1.73;;
33266;SDS011;19638;49.080;11.896;2023-07-13T17:08:58;3.45;;;1.55;;
33266;SDS011;19638;49.080;11.896;2023-07-13T17:13:09;6.50;;;1.65;;
33266;SDS011;19638;49.080;11.896;2023-07-13T17:17:17;3.60;;;1.70;;
33266;SDS011;19638;49.080;11.896;2023-07-13T17:21:26;3.45;;;1.60;;
33266;SDS011;19638;49.080;11.896;2023-07-13T17:25:31;1.95;;;1.75;;
33266;SDS011;19638;49.080;11.896;2023-07-13T17:29:41;1.63;;;1.50;;
33266;SDS011;19638;49.080;11.896;2023-07-13T17:33:52;2.30;;;1.60;;
33266;SDS011;19638;49.080;11.896;2023-07-13T17:37:59;4.32;;;2.13;;
33266;SDS011;19638;49.080;11.896;2023-07-13T17:42:04;3.40;;;1.50;;
33266;SDS011;19638;49.080;11.896;2023-07-13T17:46:10;3.08;;;1.83;;
33266;SDS011;19638;49.080;11.896;2023-07-13T17:50:22;3.05;;;1.70;;
33266;SDS011;19638;49.080;11.896;2023-07-13T17:54:38;4.30;;;1.63;;
33266;SDS011;19638;49.080;11.896;2023-07-13T17:58:45;1.98;;;1.60;;
33266;SDS011;19638;49.080;11.896;2023-07-13T18:02:49;4.25;;;1.30;;
33266;SDS011;19638;49.080;11.896;2023-07-13T18:06:53;3.60;;;1.40;;
33266;SDS011;19638;49.080;11.896;2023-07-13T18:10:59;4.25;;;1.92;;
33266;SDS011;19638;49.080;11.896;2023-07-13T18:15:04;4.32;;;2.00;;
33266;SDS011;19638;49.080;11.896;2023-07-13T18:19:20;4.07;;;1.67;;
33266;SDS011;19638;49.080;11.896;2023-07-13T18:23:34;1.65;;;1.55;;
33266;SDS011;19638;49.080;11.896;2023-07-13T18:27:37;3.58;;;1.50;;
33266;SDS011;19638;49.080;11.896;2023-07-13T18:31:43;3.35;;;1.60;;
33266;SDS011;19638;49.080;11.896;2023-07-13T18:35:50;3.55;;;1.80;;
33266;SDS011;19638;49.080;11.896;2023-07-13T18:39:55;3.80;;;1.77;;
33266;SDS011;19638;49.080;11.896;2023-07-13T18:43:59;2.20;;;2.00;;
33266;SDS011;19638;49.080;11.896;2023-07-13T18:48:06;3.35;;;1.80;;
33266;SDS011;19638;49.080;11.896;2023-07-13T18:52:16;3.45;;;1.83;;
33266;SDS011;19638;49.080;11.896;2023-07-13T18:56:23;4.82;;;2.15;;
33266;SDS011;19638;49.080;11.896;2023-07-13T19:00:27;4.40;;;1.65;;
33266;SDS011;19638;49.080;11.896;2023-07-13T19:04:32;3.38;;;2.00;;
33266;SDS011;19638;49.080;11.896;2023-07-13T19:08:39;10.43;;;2.70;;
33266;SDS011;19638;49.080;11.896;2023-07-13T19:12:47;3.28;;;2.08;;
33266;SDS011;19638;49.080;11.896;2023-07-13T19:16:56;7.28;;;2.20;;
33266;SDS011;19638;49.080;11.896;2023-07-13T19:21:05;5.57;;;2.60;;
33266;SDS011;19638;49.080;11.896;2023-07-13T19:25:14;6.72;;;2.33;;
33266;SDS011;19638;49.080;11.896;2023-07-13T19:29:20;2.65;;;2.08;;
33266;SDS011;19638;49.080;11.896;2023-07-13T19:33:28;3.85;;;2.15;;
33266;SDS011;19638;49.080;11.896;2023-07-13T19:37:33;9.48;;;2.60;;
33266;SDS011;19638;49.080;11.896;2023-07-13T19:41:37;4.32;;;3.20;;
33266;SDS011;19638;49.080;11.896;2023-07-13T19:45:42;8.52;;;3.03;;
33266;SDS011;19638;49.080;11.896;2023-07-13T19:49:45;4.78;;;2.50;;
33266;SDS011;19638;49.080;11.896;2023-07-13T19:53:52;7.47;;;2.40;;
33266;SDS011;19638;49.080;11.896;2023-07-13T19:58:00;3.38;;;2.25;;
33266;SDS011;19638;49.080;11.896;2023-07-13T20:02:09;5.15;;;2.25;;
33266;SDS011;19638;49.080;11.896;2023-07-13T20:06:31;3.70;;;2.30;;
33266;SDS011;19638;49.080;11.896;2023-07-13T20:10:35;5.30;;;2.60;;
33266;SDS011;19638;49.080;11.896;2023-07-13T20:14:41;5.68;;;2.60;;
33266;SDS011;19638;49.080;11.896;2023-07-13T20:18:52;6.63;;;2.53;;
33266;SDS011;19638;49.080;11.896;2023-07-13T20:22:58;3.95;;;2.25;;
33266;SDS011;19638;49.080;11.896;2023-07-13T20:27:03;3.88;;;2.42;;
33266;SDS011;19638;49.080;11.896;2023-07-13T20:31:10;6.63;;;2.70;;
33266;SDS011;19638;49.080;11.896;2023-07-13T20:35:28;3.05;;;2.30;;
33266;SDS011;19638;49.080;11.896;2023-07-13T20:39:33;4.03;;;2.10;;
33266;SDS011;19638;49.080;11.896;2023-07-13T20:43:36;3.40;;;2.40;;
33266;SDS011;19638;49.080;11.896;2023-07-13T20:47:40;6.55;;;2.28;;
33266;SDS011;19638;49.080;11.896;2023-07-13T20:51:45;6.97;;;2.30;;
33266;SDS011;19638;49.080;11.896;2023-07-13T20:55:58;3.20;;;2.30;;
33266;SDS011;19638;49.080;11.896;2023-07-13T21:00:06;5.40;;;2.10;;
33266;SDS011;19638;49.080;11.896;2023-07-13T21:04:15;4.40;;;2.13;;
33266;SDS011;19638;49.080;11.896;2023-07-13T21:08:23;2.08;;;1.90;;
33266;SDS011;19638;49.080;11.896;2023-07-13T21:12:28;5.28;;;2.20;;
33266;SDS011;19638;49.080;11.896;2023-07-13T21:16:39;3.63;;;2.08;;
33266;SDS011;19638;49.080;11.896;2023-07-13T21:20:45;2.50;;;1.90;;
33266;SDS011;19638;49.080;11.896;2023-07-13T21:24:52;4.88;;;2.33;;
33266;SDS011;19638;49.080;11.896;2023-07-13T21:28:56;7.57;;;2.63;;
33266;SDS011;19638;49.080;11.896;2023-07-13T21:33:02;3.80;;;2.60;;
33266;SDS011;19638;49.080;11.896;2023-07-13T21:37:08;4.28;;;2.60;;
33266;SDS011;19638;49.080;11.896;2023-07-13T21:41:20;4.40;;;2.35;;
33266;SDS011;19638;49.080;11.896;2023-07-13T21:45:27;3.80;;;2.38;;
33266;SDS011;19638;49.080;11.896;2023-07-13T21:49:31;5.00;;;2.50;;
33266;SDS011;19638;49.080;11.896;2023-07-13T21:53:34;3.47;;;2.17;;
33266;SDS011;19638;49.080;11.896;2023-07-13T21:57:39;2.92;;;2.28;;
33266;SDS011;19638;49.080;11.896;2023-07-13T22:01:42;3.63;;;2.30;;
33266;SDS011;19638;49.080;11.896;2023-07-13T22:05:45;2.40;;;2.05;;
33266;SDS011;19638;49.080;11.896;2023-07-13T22:09:49;3.03;;;2.47;;
33266;SDS011;19638;49.080;11.896;2023-07-13T22:13:54;5.30;;;2.80;;
33266;SDS011;19638;49.080;11.896;2023-07-13T22:18:02;3.70;;;2.53;;
33266;SDS011;19638;49.080;11.896;2023-07-13T22:22:11;3.63;;;2.45;;
33266;SDS011;19638;49.080;11.896;2023-07-13T22:26:18;5.07;;;2.70;;
33266;SDS011;19638;49.080;11.896;2023-07-13T22:30:24;6.63;;;2.53;;
33266;SDS011;19638;49.080;11.896;2023-07-13T22:34:29;4.75;;;2.42;;
33266;SDS011;19638;49.080;11.896;2023-07-13T22:38:34;3.00;;;2.72;;
33266;SDS011;19638;49.080;11.896;2023-07-13T22:42:37;4.72;;;2.40;;
33266;SDS011;19638;49.080;11.896;2023-07-13T22:46:42;3.45;;;2.42;;
33266;SDS011;19638;49.080;11.896;2023-07-13T22:50:46;5.82;;;2.47;;
33266;SDS011;19638;49.080;11.896;2023-07-13T22:54:50;2.70;;;2.42;;
33266;SDS011;19638;49.080;11.896;2023-07-13T22:58:53;4.10;;;2.55;;
33266;SDS011;19638;49.080;11.896;2023-07-13T23:02:58;4.93;;;2.42;;
33266;SDS011;19638;49.080;11.896;2023-07-13T23:07:05;5.03;;;2.88;;
33266;SDS011;19638;49.080;11.896;2023-07-13T23:11:08;3.90;;;2.60;;
33266;SDS011;19638;49.080;11.896;2023-07-13T23:15:14;3.33;;;2.33;;
33266;SDS011;19638;49.080;11.896;2023-07-13T23:19:26;2.80;;;2.60;;
33266;SDS011;19638;49.080;11.896;2023-07-13T23:23:31;3.15;;;2.30;;
33266;SDS011;19638;49.080;11.896;2023-07-13T23:27:34;3.47;;;2.63;;
33266;SDS011;19638;49.080;11.896;2023-07-13T23:31:42;3.90;;;2.30;;
33266;SDS011;19638;49.080;11.896;2023-07-13T23:35:50;6.68;;;2.45;;
33266;SDS011;19638;49.080;11.896;2023-07-13T23:39:58;4.35;;;2.50;;
33266;SDS011;19638;49.080;11.896;2023-07-13T23:44:06;3.15;;;2.42;;
33266;SDS011;19638;49.080;11.896;2023-07-13T23:48:12;5.20;;;2.60;;
33266;SDS011;19638;49.080;11.896;2023-07-13T23:52:17;4.82;;;2.35;;
33266;SDS011;19638;49.080;11.896;2023-07-13T23:56:21;7.28;;;2.58;;
